Terminal Aerodrome Forecast
Issued by NWS

Home | Current Version | Previous Version | Text Only | Print | Product List | Glossary On
Versions: 1 2 3 4 5 6 7 8 9 10 11
216
FTUS45 KABQ 240530
TAFFMN
TAF
KFMN 240530Z 2406/2506 24011KT P6SM BKN250
     FM240900 25007KT P6SM SCT250
     FM241400 13008KT P6SM BKN200
     FM241800 25015KT P6SM SCT150
     FM242100 27023G35KT P6SM BKN120=

USA.gov is the U.S. government's official web portal to all federal, state and local government web resources and services.